createdAt,value
2018-11-23T00:00:34.655Z,102282.46
2018-11-23T00:03:05.069Z,102291.04
2018-11-23T00:05:33.716Z,102287.00
2018-11-23T00:08:02.570Z,102280.75
2018-11-23T00:10:32.547Z,102285.66
2018-11-23T00:13:01.250Z,102277.19
2018-11-23T00:15:29.976Z,102271.81
2018-11-23T00:17:58.630Z,102266.03
2018-11-23T00:20:28.582Z,102269.59
2018-11-23T00:22:57.304Z,102273.16
2018-11-23T00:25:26.763Z,102265.08
2018-11-23T00:27:55.925Z,102264.69
2018-11-23T00:30:26.801Z,102261.59
2018-11-23T00:32:55.480Z,102266.03
2018-11-23T00:35:25.401Z,102265.62
2018-11-23T00:37:54.684Z,102266.11
2018-11-23T00:40:24.699Z,102258.11
2018-11-23T00:42:54.102Z,102260.80
2018-11-23T00:45:22.833Z,102263.48
2018-11-23T00:47:52.094Z,102264.84
2018-11-23T00:50:22.040Z,102267.16
2018-11-23T00:52:51.296Z,102269.85
2018-11-23T00:55:21.002Z,102262.25
2018-11-23T00:57:49.690Z,102267.16
2018-11-23T01:00:35.513Z,102266.29
2018-11-23T01:03:05.599Z,102264.19
2018-11-23T01:05:34.316Z,102261.49
2018-11-23T01:08:03.061Z,102259.28
2018-11-23T01:10:31.975Z,102267.34
2018-11-23T01:13:00.731Z,102266.88
2018-11-23T01:15:29.421Z,102270.03
2018-11-23T01:17:58.133Z,102267.82
2018-11-23T01:20:27.593Z,102267.82
2018-11-23T01:22:56.952Z,102268.30
2018-11-23T01:25:26.568Z,102272.33
2018-11-23T01:27:55.850Z,102267.92
2018-11-23T01:30:27.917Z,102261.20
2018-11-23T01:32:56.710Z,102261.67
2018-11-23T01:35:25.361Z,102258.98
2018-11-23T01:37:54.076Z,102263.89
2018-11-23T01:40:24.843Z,102262.55
2018-11-23T01:42:54.032Z,102251.86
2018-11-23T01:45:22.845Z,102248.34
2018-11-23T01:47:51.559Z,102245.14
2018-11-23T01:50:23.283Z,102249.17
2018-11-23T01:52:52.561Z,102244.78
2018-11-23T01:55:22.285Z,102236.30
2018-11-23T01:57:50.969Z,102239.39
2018-11-23T02:00:21.808Z,102225.55
2018-11-23T02:02:51.420Z,102227.77
2018-11-23T02:05:20.119Z,102222.86
2018-11-23T02:07:48.806Z,102227.36
2018-11-23T02:10:18.184Z,102230.92
2018-11-23T02:12:46.807Z,102223.84
2018-11-23T02:15:17.651Z,102232.38
2018-11-23T02:17:46.586Z,102231.91
2018-11-23T02:20:16.533Z,102226.53
2018-11-23T02:22:45.323Z,102225.26
2018-11-23T02:25:14.065Z,102227.08
2018-11-23T02:27:42.733Z,102234.20
2018-11-23T02:30:15.605Z,102229.77
2018-11-23T02:32:44.545Z,102225.73
2018-11-23T02:35:13.949Z,102229.41
2018-11-23T02:37:42.643Z,102227.55
2018-11-23T02:40:12.755Z,102230.75
2018-11-23T02:42:41.611Z,102224.02
2018-11-23T02:45:13.741Z,102229.48
2018-11-23T02:47:43.490Z,102226.79
2018-11-23T02:50:12.206Z,102218.25
2018-11-23T02:52:41.545Z,102216.03
2018-11-23T02:55:11.596Z,102223.63
2018-11-23T02:57:40.320Z,102222.28
2018-11-23T03:00:12.325Z,102224.50
2018-11-23T03:02:41.046Z,102216.91
2018-11-23T03:05:11.366Z,102219.99
2018-11-23T03:07:40.297Z,102219.12
2018-11-23T03:10:11.875Z,102214.21
2018-11-23T03:12:41.031Z,102211.52
2018-11-23T03:15:11.334Z,102205.67
2018-11-23T03:17:39.949Z,102210.58
2018-11-23T03:20:11.725Z,102202.51
2018-11-23T03:22:40.827Z,102196.73
2018-11-23T03:25:10.556Z,102202.00
2018-11-23T03:27:39.242Z,102199.81
2018-11-23T03:30:13.193Z,102197.13
2018-11-23T03:32:41.973Z,102199.81
2018-11-23T03:35:10.651Z,102206.91
2018-11-23T03:37:39.462Z,102196.62
2018-11-23T03:40:08.266Z,102197.97
2018-11-23T03:42:36.959Z,102192.11
2018-11-23T03:45:06.940Z,102184.16
2018-11-23T03:47:35.674Z,102187.20
2018-11-23T03:50:04.527Z,102177.31
2018-11-23T03:52:33.217Z,102175.50
2018-11-23T03:55:01.890Z,102174.62
2018-11-23T03:57:30.588Z,102171.94
2018-11-23T03:59:59.423Z,102170.59
2018-11-23T04:02:28.307Z,102167.43
2018-11-23T04:04:57.306Z,102167.43
2018-11-23T04:07:26.107Z,102168.77
2018-11-23T04:09:54.899Z,102158.48
2018-11-23T04:12:23.565Z,102157.14
2018-11-23T04:14:52.242Z,102158.48
2018-11-23T04:17:20.959Z,102159.47
2018-11-23T04:19:49.594Z,102163.87
2018-11-23T04:22:19.230Z,102164.73
2018-11-23T04:24:47.023Z,102158.97
2018-11-23T04:27:15.665Z,102164.84
2018-11-23T04:29:44.305Z,102154.09
2018-11-23T04:32:13.015Z,102162.52
2018-11-23T04:34:41.735Z,102158.97
2018-11-23T04:37:10.362Z,102156.27
2018-11-23T04:39:39.040Z,102157.62
2018-11-23T04:42:07.795Z,102160.30
2018-11-23T04:44:36.520Z,102152.23
2018-11-23T04:47:05.358Z,102158.48
2018-11-23T04:49:34.047Z,102152.23
2018-11-23T04:52:02.725Z,102150.05
2018-11-23T04:54:31.463Z,102151.77
2018-11-23T04:57:00.141Z,102147.73
2018-11-23T04:59:28.856Z,102141.48
2018-11-23T05:01:57.653Z,102143.33
2018-11-23T05:04:26.282Z,102144.17
2018-11-23T05:06:54.971Z,102145.52
2018-11-23T05:09:23.611Z,102146.02
2018-11-23T05:11:52.363Z,102139.30
2018-11-23T05:14:21.051Z,102133.92
2018-11-23T05:16:49.679Z,102136.10
2018-11-23T05:19:18.407Z,102133.92
2018-11-23T05:21:47.345Z,102136.97
2018-11-23T05:24:15.984Z,102139.30
2018-11-23T05:26:44.750Z,102135.27
2018-11-23T05:29:13.547Z,102124.00
2018-11-23T05:31:42.251Z,102133.92
2018-11-23T05:34:11.041Z,102125.92
2018-11-23T05:36:39.719Z,102121.81
2018-11-23T05:39:09.571Z,102122.66
2018-11-23T05:41:38.214Z,102119.59
2018-11-23T05:44:06.878Z,102116.44
2018-11-23T05:46:35.625Z,102120.47
2018-11-23T05:49:04.891Z,102124.98
2018-11-23T05:51:33.635Z,102124.50
2018-11-23T05:54:02.322Z,102121.81
2018-11-23T05:56:30.983Z,102122.17
2018-11-23T05:58:59.683Z,102120.36
2018-11-23T06:01:28.373Z,102117.78
2018-11-23T06:03:57.056Z,102118.54
2018-11-23T06:06:25.971Z,102118.43
2018-11-23T06:08:54.613Z,102110.36
2018-11-23T06:11:23.333Z,102109.88
2018-11-23T06:13:52.019Z,102114.67
2018-11-23T06:16:20.650Z,102112.49
2018-11-23T06:18:49.404Z,102111.63
2018-11-23T06:21:18.113Z,102114.67
2018-11-23T06:23:46.787Z,102111.03
2018-11-23T06:26:17.821Z,102115.07
2018-11-23T06:28:46.496Z,102114.20
2018-11-23T06:31:15.151Z,102113.73
2018-11-23T06:33:45.198Z,102113.73
2018-11-23T06:36:13.892Z,102117.77
2018-11-23T06:38:42.611Z,102118.63
2018-11-23T06:41:11.606Z,102124.59
2018-11-23T06:43:40.249Z,102119.22
2018-11-23T06:46:10.693Z,102120.56
2018-11-23T06:48:39.509Z,102117.87
2018-11-23T06:51:08.443Z,102117.95
2018-11-23T06:53:37.197Z,102118.83
2018-11-23T06:56:06.235Z,102115.73
2018-11-23T06:58:34.967Z,102116.24
2018-11-23T07:01:03.672Z,102117.59
2018-11-23T07:03:32.376Z,102125.66
2018-11-23T07:06:01.172Z,102126.13
2018-11-23T07:08:29.867Z,102123.16
2018-11-23T07:11:01.804Z,102127.48
2018-11-23T07:13:31.343Z,102123.05
2018-11-23T07:16:00.042Z,102117.67
2018-11-23T07:18:29.320Z,102122.58
2018-11-23T07:20:58.058Z,102121.63
2018-11-23T07:23:26.712Z,102118.54
2018-11-23T07:25:55.413Z,102123.44
2018-11-23T07:28:24.083Z,102126.50
2018-11-23T07:30:53.018Z,102126.61
2018-11-23T07:33:21.716Z,102138.23
2018-11-23T07:35:50.475Z,102134.68
2018-11-23T07:38:19.156Z,102133.81
2018-11-23T07:40:58.845Z,102131.98
2018-11-23T07:43:27.555Z,102140.05
2018-11-23T07:45:56.319Z,102138.31
2018-11-23T07:48:24.975Z,102126.21
2018-11-23T07:50:53.671Z,102122.77
2018-11-23T07:53:22.417Z,102125.85
2018-11-23T07:55:51.155Z,102120.95
2018-11-23T07:58:19.811Z,102118.25
2018-11-23T08:00:48.550Z,102121.42
2018-11-23T08:03:17.286Z,102116.04
2018-11-23T08:05:45.991Z,102119.20
2018-11-23T08:08:14.643Z,102118.73
2018-11-23T08:10:42.437Z,102122.77
2018-11-23T08:13:11.280Z,102119.68
2018-11-23T08:15:39.980Z,102113.46
2018-11-23T08:18:08.720Z,102120.55
2018-11-23T08:20:37.396Z,102116.16
2018-11-23T08:23:06.142Z,102121.89
2018-11-23T08:25:34.828Z,102117.50
2018-11-23T08:28:03.822Z,102115.28
2018-11-23T08:30:32.486Z,102126.04
2018-11-23T08:33:01.258Z,102115.28
2018-11-23T08:35:29.986Z,102108.55
2018-11-23T08:37:58.682Z,102111.25
2018-11-23T08:40:28.117Z,102109.51
2018-11-23T08:42:57.166Z,102105.00
2018-11-23T08:45:27.107Z,102107.69
2018-11-23T08:47:55.878Z,102101.36
2018-11-23T08:50:29.751Z,102112.59
2018-11-23T08:52:58.838Z,102107.22
2018-11-23T08:55:28.002Z,102111.25
2018-11-23T08:57:56.669Z,102107.58
2018-11-23T09:00:26.581Z,102104.05
2018-11-23T09:02:56.876Z,102104.41
2018-11-23T09:05:25.551Z,102103.94
2018-11-23T09:07:55.302Z,102107.58
2018-11-23T09:10:25.382Z,102103.06
2018-11-23T09:12:55.751Z,102101.25
2018-11-23T09:15:24.473Z,102102.59
2018-11-23T09:17:53.196Z,102099.90
2018-11-23T09:20:21.923Z,102103.46
2018-11-23T09:22:50.702Z,102103.94
2018-11-23T09:25:20.916Z,102110.55
2018-11-23T09:27:49.688Z,102104.80
2018-11-23T09:30:25.959Z,102106.52
2018-11-23T09:32:55.402Z,102103.83
2018-11-23T09:35:24.217Z,102099.79
2018-11-23T09:37:53.052Z,102098.95
2018-11-23T09:40:24.972Z,102102.48
2018-11-23T09:42:53.931Z,102097.61
2018-11-23T09:45:24.181Z,102098.84
2018-11-23T09:47:54.393Z,102091.25
2018-11-23T09:50:24.203Z,102089.91
2018-11-23T09:52:54.364Z,102088.08
2018-11-23T09:55:24.124Z,102088.55
2018-11-23T09:57:52.563Z,102080.48
2018-11-23T10:00:24.417Z,102077.33
2018-11-23T10:02:54.218Z,102072.05
2018-11-23T10:05:23.609Z,102073.87
2018-11-23T10:07:54.973Z,102071.07
2018-11-23T10:10:24.497Z,102069.84
2018-11-23T10:12:53.427Z,102066.67
2018-11-23T10:15:23.053Z,102063.98
2018-11-23T10:17:51.717Z,102055.92
2018-11-23T10:20:22.932Z,102051.38
2018-11-23T10:22:51.680Z,102045.16
2018-11-23T10:25:22.806Z,102045.16
2018-11-23T10:27:51.531Z,102044.65
2018-11-23T10:30:21.532Z,102046.50
2018-11-23T10:32:51.473Z,102035.75
2018-11-23T10:35:20.195Z,102037.09
2018-11-23T10:37:50.116Z,102035.75
2018-11-23T10:40:22.008Z,102035.23
2018-11-23T10:42:50.744Z,102041.13
2018-11-23T10:45:21.675Z,102024.98
2018-11-23T10:47:51.126Z,102030.84
2018-11-23T10:50:21.251Z,102030.37
2018-11-23T10:52:50.027Z,102021.79
2018-11-23T10:55:20.699Z,102021.43
2018-11-23T10:57:49.598Z,102020.45
2018-11-23T11:00:24.189Z,102021.43
2018-11-23T11:02:59.419Z,102023.13
2018-11-23T11:05:31.655Z,102020.08
2018-11-23T11:08:01.559Z,102016.92
2018-11-23T11:10:30.246Z,102017.39
2018-11-23T11:12:58.972Z,102022.30
2018-11-23T11:15:27.797Z,102030.84
2018-11-23T11:17:56.493Z,102021.91
2018-11-23T11:20:25.260Z,102019.61
2018-11-23T11:22:53.973Z,102015.58
2018-11-23T11:25:22.707Z,102012.49
2018-11-23T11:27:51.454Z,102006.16
2018-11-23T11:30:20.463Z,102004.81
2018-11-23T11:32:49.673Z,101998.09
2018-11-23T11:35:18.386Z,101994.05
2018-11-23T11:37:47.025Z,101987.81
2018-11-23T11:40:17.091Z,101991.84
2018-11-23T11:42:45.870Z,101990.50
2018-11-23T11:45:15.900Z,101992.80
2018-11-23T11:47:45.219Z,101995.87
2018-11-23T11:50:14.311Z,101988.68
2018-11-23T11:52:44.229Z,101983.30
2018-11-23T11:55:14.803Z,101978.00
2018-11-23T11:57:44.085Z,101979.34
2018-11-23T12:00:14.777Z,101973.49
2018-11-23T12:02:43.477Z,101977.13
2018-11-23T12:05:13.088Z,101970.41
2018-11-23T12:07:42.034Z,101963.20
2018-11-23T12:10:13.634Z,101961.87
2018-11-23T12:12:42.372Z,101967.72
2018-11-23T12:15:12.083Z,101967.24
2018-11-23T12:17:41.234Z,101963.69
2018-11-23T12:20:12.672Z,101960.16
2018-11-23T12:22:41.573Z,101954.27
2018-11-23T12:25:10.498Z,101953.44
2018-11-23T12:27:39.308Z,101951.58
2018-11-23T12:30:12.806Z,101948.89
2018-11-23T12:32:42.171Z,101948.89
2018-11-23T12:35:12.072Z,101945.73
2018-11-23T12:37:40.968Z,101941.69
2018-11-23T12:40:11.723Z,101932.75
2018-11-23T12:42:40.497Z,101932.28
2018-11-23T12:45:11.410Z,101926.42
2018-11-23T12:47:40.150Z,101924.69
2018-11-23T12:50:10.956Z,101922.51
2018-11-23T12:52:39.729Z,101916.62
2018-11-23T12:55:09.144Z,101902.81
2018-11-23T12:57:37.873Z,101899.73
2018-11-23T13:00:17.357Z,101895.70
2018-11-23T13:02:47.088Z,101895.34
2018-11-23T13:05:15.908Z,101887.27
2018-11-23T13:07:44.606Z,101887.75
2018-11-23T13:10:13.321Z,101889.56
2018-11-23T13:12:41.963Z,101885.53
2018-11-23T13:15:10.713Z,101881.98
2018-11-23T13:17:39.480Z,101879.77
2018-11-23T13:20:12.112Z,101884.30
2018-11-23T13:22:40.844Z,101885.14
2018-11-23T13:25:14.800Z,101890.16
2018-11-23T13:27:43.611Z,101895.06
2018-11-23T13:30:17.517Z,101893.72
2018-11-23T13:32:46.199Z,101899.93
2018-11-23T13:35:16.120Z,101889.17
2018-11-23T13:37:44.811Z,101881.98
2018-11-23T13:40:15.578Z,101885.14
2018-11-23T13:42:44.665Z,101880.63
2018-11-23T13:45:14.640Z,101877.94
2018-11-23T13:47:43.446Z,101873.44
2018-11-23T13:50:13.789Z,101872.56
2018-11-23T13:52:43.653Z,101867.19
2018-11-23T13:55:12.423Z,101870.75
2018-11-23T13:57:41.185Z,101870.75
2018-11-23T14:00:15.095Z,101875.17
2018-11-23T14:02:44.302Z,101866.23
2018-11-23T14:05:14.707Z,101871.14
2018-11-23T14:07:44.327Z,101869.40
2018-11-23T14:10:17.756Z,101873.31
2018-11-23T14:12:46.568Z,101868.45
2018-11-23T14:15:16.763Z,101865.25
2018-11-23T14:17:46.454Z,101860.73
2018-11-23T14:20:16.056Z,101863.91
2018-11-23T14:22:44.875Z,101862.95
2018-11-23T14:25:15.990Z,101859.39
2018-11-23T14:27:45.410Z,101861.61
2018-11-23T14:30:18.568Z,101857.09
2018-11-23T14:32:47.700Z,101864.17
2018-11-23T14:35:18.705Z,101851.72
2018-11-23T14:37:48.325Z,101849.39
2018-11-23T14:40:17.225Z,101847.20
2018-11-23T14:42:47.007Z,101846.70
2018-11-23T14:45:20.031Z,101846.70
2018-11-23T14:47:49.546Z,101850.25
2018-11-23T14:50:20.356Z,101843.05
2018-11-23T14:52:50.317Z,101833.64
2018-11-23T14:55:19.570Z,101828.73
2018-11-23T14:57:48.443Z,101826.44
2018-11-23T15:00:27.649Z,101826.44
2018-11-23T15:02:57.531Z,101829.13
2018-11-23T15:05:26.273Z,101823.27
2018-11-23T15:07:55.025Z,101829.87
2018-11-23T15:10:25.145Z,101823.63
2018-11-23T15:12:55.190Z,101824.50
2018-11-23T15:15:26.242Z,101821.34
2018-11-23T15:17:55.581Z,101821.73
2018-11-23T15:20:26.181Z,101824.41
2018-11-23T15:22:58.368Z,101822.20
2018-11-23T15:25:27.096Z,101821.13
2018-11-23T15:27:55.902Z,101823.82
2018-11-23T15:30:27.242Z,101817.57
2018-11-23T15:32:56.335Z,101830.06
2018-11-23T15:35:25.290Z,101815.48
2018-11-23T15:37:54.106Z,101821.01
2018-11-23T15:40:24.713Z,101824.57
2018-11-23T15:42:55.378Z,101821.01
2018-11-23T15:45:25.411Z,101816.02
2018-11-23T15:47:54.347Z,101824.96
2018-11-23T15:50:29.833Z,101816.89
2018-11-23T15:52:58.575Z,101814.20
2018-11-23T15:55:29.037Z,101812.34
2018-11-23T15:57:59.491Z,101802.45
2018-11-23T16:00:30.542Z,101798.42
2018-11-23T16:02:59.309Z,101806.97
2018-11-23T16:05:28.103Z,101797.08
2018-11-23T16:08:00.394Z,101794.86
2018-11-23T16:10:30.589Z,101788.14
2018-11-23T16:13:00.393Z,101784.61
2018-11-23T16:15:29.585Z,101788.14
2018-11-23T16:17:58.865Z,101789.48
2018-11-23T16:20:30.196Z,101793.52
2018-11-23T16:23:02.190Z,101796.20
2018-11-23T16:25:30.954Z,101804.66
2018-11-23T16:28:01.184Z,101798.06
2018-11-23T16:30:32.109Z,101793.52
2018-11-23T16:33:01.952Z,101795.38
2018-11-23T16:35:32.213Z,101797.08
2018-11-23T16:38:02.710Z,101791.69
2018-11-23T16:40:32.678Z,101790.83
2018-11-23T16:43:01.846Z,101793.04
2018-11-23T16:45:31.909Z,101796.59
2018-11-23T16:48:01.737Z,101786.31
2018-11-23T16:50:30.836Z,101790.83
2018-11-23T16:52:59.857Z,101796.59
2018-11-23T16:55:28.778Z,101792.56
2018-11-23T16:58:02.677Z,101784.02
2018-11-23T17:00:32.700Z,101777.29
2018-11-23T17:03:03.062Z,101775.95
2018-11-23T17:05:34.375Z,101772.78
2018-11-23T17:08:03.240Z,101767.40
2018-11-23T17:10:31.945Z,101765.55
2018-11-23T17:13:00.618Z,101773.14
2018-11-23T17:15:29.955Z,101772.66
2018-11-23T17:17:58.772Z,101766.41
2018-11-23T17:20:28.840Z,101768.14
2018-11-23T17:22:59.054Z,101768.63
2018-11-23T17:25:28.533Z,101766.80
2018-11-23T17:27:58.392Z,101765.34
2018-11-23T17:30:28.270Z,101766.33
2018-11-23T17:32:57.192Z,101763.98
2018-11-23T17:35:26.008Z,101766.33
2018-11-23T17:37:56.168Z,101768.02
2018-11-23T17:40:25.193Z,101759.95
2018-11-23T17:42:54.359Z,101759.95
2018-11-23T17:45:25.913Z,101752.75
2018-11-23T17:47:55.160Z,101749.20
2018-11-23T17:50:25.481Z,101746.50
2018-11-23T17:52:54.364Z,101744.30
2018-11-23T17:55:23.143Z,101741.13
2018-11-23T17:57:53.139Z,101748.33
2018-11-23T18:00:23.322Z,101746.98
2018-11-23T18:02:52.815Z,101739.78
2018-11-23T18:05:22.346Z,101733.53
2018-11-23T18:07:51.473Z,101733.53
2018-11-23T18:10:22.416Z,101730.01
2018-11-23T18:12:51.598Z,101727.80
2018-11-23T18:15:22.572Z,101723.77
2018-11-23T18:17:52.275Z,101725.97
2018-11-23T18:20:22.303Z,101725.11
2018-11-23T18:22:51.989Z,101724.23
2018-11-23T18:25:23.901Z,101724.23
2018-11-23T18:27:57.816Z,101725.11
2018-11-23T18:30:26.635Z,101728.27
2018-11-23T18:32:55.474Z,101726.06
2018-11-23T18:35:24.385Z,101721.67
2018-11-23T18:37:53.324Z,101721.67
2018-11-23T18:40:22.094Z,101723.02
2018-11-23T18:42:51.299Z,101710.05
2018-11-23T18:45:20.723Z,101706.48
2018-11-23T18:47:49.536Z,101704.67
2018-11-23T18:50:18.868Z,101700.63
2018-11-23T18:52:47.608Z,101708.31
2018-11-23T18:55:18.118Z,101696.69
2018-11-23T18:57:45.180Z,101689.48
2018-11-23T19:00:14.976Z,101698.90
2018-11-23T19:02:44.696Z,101691.82
2018-11-23T19:05:16.720Z,101690.95
2018-11-23T19:07:45.487Z,101701.70
2018-11-23T19:10:14.964Z,101715.16
2018-11-23T19:12:43.713Z,101702.19
2018-11-23T19:15:13.961Z,101689.22
2018-11-23T19:17:42.859Z,101687.01
2018-11-23T19:20:14.889Z,101689.22
2018-11-23T19:22:44.762Z,101683.48
2018-11-23T19:25:13.538Z,101685.78
2018-11-23T19:27:42.336Z,101676.38
2018-11-23T19:30:12.551Z,101683.57
2018-11-23T19:32:41.284Z,101679.18
2018-11-23T19:35:10.021Z,101678.31
2018-11-23T19:37:38.846Z,101682.83
2018-11-23T19:40:13.761Z,101673.41
2018-11-23T19:42:42.777Z,101666.21
2018-11-23T19:45:15.533Z,101664.66
2018-11-23T19:47:44.365Z,101672.39
2018-11-23T19:50:15.079Z,101668.35
2018-11-23T19:52:43.841Z,101665.19
2018-11-23T19:55:13.581Z,101658.08
2018-11-23T19:57:42.396Z,101667.61
2018-11-23T20:00:23.196Z,101664.92
2018-11-23T20:02:52.133Z,101659.16
2018-11-23T20:05:21.019Z,101654.73
2018-11-23T20:10:20.588Z,101647.48
2018-11-23T20:12:50.639Z,101645.87
2018-11-23T20:15:20.596Z,101645.00
2018-11-23T20:17:49.556Z,101644.05
2018-11-23T20:20:18.587Z,101642.70
2018-11-23T20:22:48.239Z,101638.66
2018-11-23T20:25:18.231Z,101639.53
2018-11-23T20:27:47.771Z,101640.01
2018-11-23T20:30:17.309Z,101642.70
2018-11-23T20:32:46.144Z,101634.16
2018-11-23T20:35:15.893Z,101644.05
2018-11-23T20:37:44.658Z,101638.66
2018-11-23T20:40:15.664Z,101638.28
2018-11-23T20:42:44.423Z,101649.91
2018-11-23T20:45:13.641Z,101640.13
2018-11-23T20:47:42.403Z,101635.59
2018-11-23T20:50:12.455Z,101630.20
2018-11-23T20:52:41.217Z,101625.70
2018-11-23T20:55:15.184Z,101626.17
2018-11-23T20:57:43.967Z,101615.42
2018-11-23T21:00:14.187Z,101619.09
2018-11-23T21:02:43.275Z,101621.78
2018-11-23T21:05:13.323Z,101616.89
2018-11-23T21:07:42.477Z,101616.02
2018-11-23T21:10:20.431Z,101614.67
2018-11-23T21:12:47.391Z,101616.50
2018-11-23T21:15:28.043Z,101610.29
2018-11-23T21:17:57.749Z,101612.98
2018-11-23T21:20:26.483Z,101615.28
2018-11-23T21:22:55.196Z,101613.06
2018-11-23T21:25:23.937Z,101618.92
2018-11-23T21:27:52.735Z,101611.24
2018-11-23T21:30:22.781Z,101601.45
2018-11-23T21:32:52.302Z,101604.13
2018-11-23T21:35:21.123Z,101607.33
2018-11-23T21:37:49.807Z,101595.23
2018-11-23T21:40:18.684Z,101607.20
2018-11-23T21:42:47.376Z,101604.52
2018-11-23T21:45:19.018Z,101597.80
2018-11-23T21:47:47.711Z,101604.13
2018-11-23T21:50:25.057Z,101602.31
2018-11-23T21:52:46.824Z,101603.66
2018-11-23T21:55:17.621Z,101601.83
2018-11-23T21:57:46.360Z,101606.73
2018-11-23T22:00:15.819Z,101605.87
2018-11-23T22:02:44.540Z,101601.83
2018-11-23T22:05:13.315Z,101595.11
2018-11-23T22:07:42.103Z,101602.22
2018-11-23T22:10:12.241Z,101605.87
2018-11-23T22:12:41.003Z,101608.94
2018-11-23T22:15:11.149Z,101592.81
2018-11-23T22:17:39.941Z,101591.94
2018-11-23T22:20:10.585Z,101589.73
2018-11-23T22:22:39.323Z,101592.90
2018-11-23T22:25:10.235Z,101588.77
2018-11-23T22:27:38.914Z,101586.92
2018-11-23T22:30:13.962Z,101590.59
2018-11-23T22:32:42.714Z,101580.70
2018-11-23T22:35:12.353Z,101581.28
2018-11-23T22:37:41.114Z,101585.70
2018-11-23T22:40:12.256Z,101578.98
2018-11-23T22:42:41.571Z,101580.32
2018-11-23T22:45:11.646Z,101574.47
2018-11-23T22:47:41.052Z,101575.42
2018-11-23T22:50:12.251Z,101576.77
2018-11-23T22:52:40.930Z,101569.56
2018-11-23T22:55:10.945Z,101570.91
2018-11-23T22:57:39.651Z,101571.30
2018-11-23T23:00:17.555Z,101565.31
2018-11-23T23:02:46.313Z,101563.97
2018-11-23T23:05:15.075Z,101553.95
2018-11-23T23:07:43.903Z,101545.77
2018-11-23T23:10:12.592Z,101549.23
2018-11-23T23:12:41.332Z,101537.86
2018-11-23T23:15:11.445Z,101533.22
2018-11-23T23:17:40.663Z,101527.23
2018-11-23T23:20:11.856Z,101519.08
2018-11-23T23:22:40.654Z,101513.48
2018-11-23T23:25:10.540Z,101511.63
2018-11-23T23:27:39.293Z,101517.77
2018-11-23T23:30:09.886Z,101505.16
2018-11-23T23:32:38.982Z,101511.69
2018-11-23T23:35:08.819Z,101509.77
2018-11-23T23:37:37.611Z,101506.25
2018-11-23T23:40:09.186Z,101501.61
2018-11-23T23:42:37.934Z,101496.96
2018-11-23T23:45:09.830Z,101504.33
2018-11-23T23:47:38.494Z,101485.98
2018-11-23T23:50:11.129Z,101491.74
2018-11-23T23:52:39.879Z,101491.74
2018-11-23T23:55:09.456Z,101500.17
2018-11-23T23:57:38.413Z,101492.95
